Time;durP1;ratioP1;P1;durP2;ratioP2;P2;SDS_P1;SDS_P2;PMS_P1;PMS_P2;Temp;Humidity;BMP_temperature;BMP_pressure;BME280_temperature;BME280_humidity;BME280_pressure;Samples;Min_cycle;Max_cycle;Signal;HPM_P1;HPM_P2
2021/11/25 00:00:46;;;;;;;24.80;13.95;;;;;;;-145.71;100.00;60690.53;4768940;30;20169;-92
2021/11/25 00:04:10;;;;;;;19.70;12.95;;;;;;;-145.71;100.00;60690.53;4768582;30;20486;-92
2021/11/25 00:07:34;;;;;;;20.27;13.02;;;;;;;-145.71;100.00;60690.53;4769074;30;20421;-92
2021/11/25 00:10:58;;;;;;;19.38;11.85;;;;;;;-145.71;100.00;60690.53;4768033;30;20040;-92
2021/11/25 00:14:22;;;;;;;27.45;13.55;;;;;;;-145.71;100.00;60690.53;4772800;30;20095;-92
2021/11/25 00:17:46;;;;;;;18.42;12.95;;;;;;;-145.71;100.00;60690.53;4768749;30;20109;-91
2021/11/25 00:21:11;;;;;;;18.80;13.15;;;;;;;-145.71;100.00;60690.53;4752615;30;20047;-92
2021/11/25 00:24:36;;;;;;;22.80;12.80;;;;;;;-145.71;100.00;60690.53;4752590;30;20031;-92
2021/11/25 00:28:00;;;;;;;26.20;13.30;;;;;;;-145.71;100.00;60690.53;4770971;30;20100;-91
2021/11/25 00:31:24;;;;;;;25.27;12.52;;;;;;;-145.71;100.00;60690.53;4768374;30;20040;-91
2021/11/25 00:34:48;;;;;;;21.48;12.32;;;;;;;-145.71;100.00;60690.53;4767404;30;20150;-91
2021/11/25 00:38:12;;;;;;;24.33;12.73;;;;;;;-145.71;100.00;60690.53;4767034;30;20051;-92
2021/11/25 00:41:36;;;;;;;23.42;13.23;;;;;;;-145.71;100.00;60690.53;4752378;30;20063;-91
2021/11/25 00:45:01;;;;;;;20.13;12.45;;;;;;;-145.71;100.00;60690.53;4753327;30;20043;-91
2021/11/25 00:48:25;;;;;;;22.85;12.20;;;;;;;-145.71;100.00;60690.53;4768469;30;20089;-91
2021/11/25 00:51:49;;;;;;;18.23;12.23;;;;;;;-145.71;100.00;60690.53;4752568;30;20032;-91
2021/11/25 00:55:13;;;;;;;21.25;13.13;;;;;;;-145.71;100.00;60690.53;4752398;30;20500;-91
2021/11/25 00:58:37;;;;;;;19.17;11.98;;;;;;;-145.71;100.00;60690.53;4754036;30;20079;-92
2021/11/25 01:02:02;;;;;;;22.17;11.48;;;;;;;-145.71;100.00;60690.53;4768272;30;20036;-91
2021/11/25 01:05:26;;;;;;;19.08;11.25;;;;;;;-145.71;100.00;60690.53;4751998;30;20044;-91
2021/11/25 01:08:50;;;;;;;16.52;11.50;;;;;;;-145.71;100.00;60690.53;4766412;30;20039;-92
2021/11/25 01:12:15;;;;;;;15.23;10.23;;;;;;;-145.71;100.00;60690.53;4756210;30;20127;-92
2021/11/25 01:15:39;;;;;;;20.05;10.90;;;;;;;-145.71;100.00;60690.53;4766476;30;20056;-92
2021/11/25 01:19:06;;;;;;;16.38;9.82;;;;;;;-145.71;100.00;60690.53;4770607;30;20084;-92
2021/11/25 01:22:30;;;;;;;16.27;9.43;;;;;;;-145.71;100.00;60690.53;4767887;30;20039;-92
2021/11/25 01:25:55;;;;;;;17.15;9.95;;;;;;;-145.71;100.00;60690.53;4770041;30;20469;-92
2021/11/25 01:29:21;;;;;;;17.63;10.07;;;;;;;-145.71;100.00;60690.53;4751575;30;20482;-92
2021/11/25 01:32:45;;;;;;;19.70;9.40;;;;;;;-145.71;100.00;60690.53;4768001;30;20074;-92
2021/11/25 01:36:09;;;;;;;17.48;9.57;;;;;;;-145.71;100.00;60690.53;4751679;30;20087;-91
2021/11/25 01:39:34;;;;;;;19.55;10.05;;;;;;;-145.71;100.00;60690.53;4766392;30;20044;-92
2021/11/25 01:42:58;;;;;;;13.40;9.00;;;;;;;-145.71;100.00;60690.53;4751885;30;20477;-91
2021/11/25 01:46:22;;;;;;;18.65;9.65;;;;;;;-145.71;100.00;60690.53;4767638;30;20055;-91
2021/11/25 01:49:47;;;;;;;21.40;9.90;;;;;;;-145.71;100.00;60690.53;4752037;30;20110;-91
2021/11/25 01:53:12;;;;;;;21.35;8.77;;;;;;;-145.71;100.00;60690.53;4766363;30;20028;-91
2021/11/25 01:56:36;;;;;;;16.38;8.75;;;;;;;-145.71;100.00;60690.53;4751869;30;20031;-91
2021/11/25 02:00:00;;;;;;;15.85;10.05;;;;;;;-145.71;100.00;60690.53;4767565;30;20035;-91
2021/11/25 02:03:26;;;;;;;18.38;9.27;;;;;;;-145.71;100.00;60690.53;4751605;30;20394;-91
2021/11/25 02:06:50;;;;;;;19.15;10.20;;;;;;;-145.71;100.00;60690.53;4768143;30;20028;-91
2021/11/25 02:10:14;;;;;;;13.57;9.23;;;;;;;-145.71;100.00;60690.53;4751108;30;20139;-92
2021/11/25 02:13:38;;;;;;;21.90;10.18;;;;;;;-145.71;100.00;60690.53;4751373;30;20039;-91
2021/11/25 02:17:03;;;;;;;14.45;9.27;;;;;;;-145.71;100.00;60690.53;4767513;30;20135;-91
2021/11/25 02:20:35;;;;;;;21.08;9.73;;;;;;;-145.71;100.00;60690.53;4768329;30;20119;-91
2021/11/25 02:23:58;;;;;;;16.57;10.33;;;;;;;-145.71;100.00;60690.53;4754693;30;20063;-91
2021/11/25 02:27:23;;;;;;;17.15;9.80;;;;;;;-145.71;100.00;60690.53;4770645;30;20349;-90
2021/11/25 02:30:48;;;;;;;16.27;10.15;;;;;;;-145.71;100.00;60690.53;4769155;30;20035;-90
2021/11/25 02:34:12;;;;;;;19.33;10.88;;;;;;;-145.71;100.00;60690.53;4754120;30;20036;-91
2021/11/25 02:37:36;;;;;;;22.40;11.00;;;;;;;-145.71;100.00;60690.53;4755190;30;20544;-91
2021/11/25 02:41:14;;;;;;;18.60;12.07;;;;;;;-145.71;100.00;60690.53;4769115;30;20066;-92
2021/11/25 02:44:38;;;;;;;25.00;12.27;;;;;;;-145.71;100.00;60690.53;4770708;30;20046;-91
2021/11/25 02:48:02;;;;;;;25.65;12.93;;;;;;;-145.71;100.00;60690.53;4769166;30;20126;-92
2021/11/25 02:51:27;;;;;;;23.70;14.20;;;;;;;-145.71;100.00;60690.53;4770919;30;20036;-92
2021/11/25 02:54:52;;;;;;;23.05;13.35;;;;;;;-145.71;100.00;60690.53;4768917;30;20103;-91
2021/11/25 02:58:16;;;;;;;26.20;14.80;;;;;;;-145.71;100.00;60690.53;4754209;30;20040;-91
2021/11/25 03:01:41;;;;;;;31.02;14.93;;;;;;;-145.71;100.00;60690.53;4754138;30;20039;-92
2021/11/25 03:05:09;;;;;;;30.15;16.35;;;;;;;-145.71;100.00;60690.53;4768956;30;20039;-91
2021/11/25 03:08:33;;;;;;;30.92;16.73;;;;;;;-145.71;100.00;60690.53;4754107;30;20128;-91
2021/11/25 03:11:57;;;;;;;31.73;16.27;;;;;;;-145.71;100.00;60690.53;4768752;30;20485;-91
2021/11/25 03:15:28;;;;;;;29.25;17.33;;;;;;;-145.71;100.00;60690.53;4769714;30;20070;-92
2021/11/25 03:18:52;;;;;;;37.53;18.35;;;;;;;-145.71;100.00;60690.53;4760562;30;20055;-92
2021/11/25 03:22:17;;;;;;;37.22;19.80;;;;;;;-145.71;100.00;60690.53;4754980;30;20493;-92
2021/11/25 03:25:41;;;;;;;38.15;20.60;;;;;;;-145.71;100.00;60690.53;4753637;30;20138;-91
2021/11/25 03:29:05;;;;;;;32.85;20.85;;;;;;;-145.71;100.00;60690.53;4753148;30;20067;-92
2021/11/25 03:32:31;;;;;;;35.65;19.85;;;;;;;-145.71;100.00;60690.53;4767831;30;20389;-91
2021/11/25 03:35:55;;;;;;;35.45;20.40;;;;;;;-145.71;100.00;60690.53;4771476;30;20401;-91
2021/11/25 03:39:19;;;;;;;37.75;21.52;;;;;;;-145.71;100.00;60690.53;4769446;30;20042;-91
2021/11/25 03:42:43;;;;;;;42.22;22.52;;;;;;;-145.71;100.00;60690.53;4753367;30;20079;-91
2021/11/25 03:46:08;;;;;;;41.20;23.15;;;;;;;-145.71;100.00;60690.53;4753289;30;20039;-91
2021/11/25 03:49:32;;;;;;;40.88;22.83;;;;;;;-145.71;100.00;60690.53;4769744;30;20375;-91
2021/11/25 03:52:56;;;;;;;40.55;23.48;;;;;;;-145.71;100.00;60690.53;4756213;30;20031;-92
2021/11/25 03:56:20;;;;;;;41.65;23.38;;;;;;;-145.71;100.00;60690.53;4770141;30;20494;-91
2021/11/25 03:59:44;;;;;;;42.20;23.67;;;;;;;-145.71;100.00;60690.53;4753128;30;20127;-91
2021/11/25 04:03:08;;;;;;;39.45;24.08;;;;;;;-145.71;100.00;60690.53;4767756;30;20043;-91
2021/11/25 04:06:32;;;;;;;41.60;23.77;;;;;;;-145.71;100.00;60690.53;4752986;30;20050;-91
2021/11/25 04:09:56;;;;;;;41.53;23.42;;;;;;;-145.71;100.00;60690.53;4768104;30;20075;-91
2021/11/25 04:13:20;;;;;;;40.95;22.77;;;;;;;-145.71;100.00;60690.53;4753226;30;20032;-91
2021/11/25 04:16:44;;;;;;;49.03;24.33;;;;;;;-145.71;100.00;60690.53;4752882;30;20078;-91
2021/11/25 04:20:10;;;;;;;50.42;24.67;;;;;;;-145.71;100.00;60690.53;4768700;30;20059;-91
2021/11/25 04:23:34;;;;;;;45.33;24.45;;;;;;;-145.71;100.00;60690.53;4770756;30;20040;-91
2021/11/25 04:26:58;;;;;;;59.70;27.00;;;;;;;-145.71;100.00;60690.53;4767447;30;20434;-91
2021/11/25 04:37:28;;;;;;;;;;;;;;;-145.71;100.00;60690.53;4769572;30;20069;-90
2021/11/25 04:40:54;;;;;;;61.80;29.38;;;;;;;-145.71;100.00;60690.53;4752275;30;19917;-91
2021/11/25 04:44:19;;;;;;;64.93;28.83;;;;;;;-145.71;100.00;60690.53;4752386;30;20032;-91
2021/11/25 04:47:43;;;;;;;78.18;31.67;;;;;;;-145.71;100.00;60690.53;4752246;30;20039;-91
2021/11/25 04:51:08;;;;;;;96.55;37.05;;;;;;;-145.71;100.00;60690.53;4752459;30;20058;-91
2021/11/25 04:54:32;;;;;;;92.18;36.00;;;;;;;-145.71;100.00;60690.53;4773344;30;20034;-90
2021/11/25 04:57:55;;;;;;;87.60;36.67;;;;;;;-145.71;100.00;60690.53;4766894;30;20036;-91
2021/11/25 05:01:19;;;;;;;94.20;37.17;;;;;;;-145.71;100.00;60690.53;4752120;30;20035;-92
2021/11/25 05:04:43;;;;;;;90.68;36.78;;;;;;;-145.71;100.00;60690.53;4752063;30;20035;-92
2021/11/25 05:08:07;;;;;;;90.82;37.10;;;;;;;-145.71;100.00;60690.53;4768603;30;20054;-91
2021/11/25 05:11:32;;;;;;;92.63;38.00;;;;;;;-145.71;100.00;60690.53;4768400;30;20489;-91
2021/11/25 05:14:56;;;;;;;97.22;38.75;;;;;;;-145.71;100.00;60690.53;4769375;30;20055;-91
2021/11/25 05:18:19;;;;;;;83.63;37.22;;;;;;;-145.71;100.00;60690.53;4769748;30;20108;-90
2021/11/25 05:21:44;;;;;;;91.82;36.80;;;;;;;-145.71;100.00;60690.53;4752463;30;20093;-92
2021/11/25 05:25:10;;;;;;;88.00;38.03;;;;;;;-145.71;100.00;60690.53;4767087;30;20035;-91
2021/11/25 06:06:50;;;;;;;101.95;41.90;;;;;;;-145.71;100.00;60690.53;5772556;24;20029;-91
2021/11/25 09:07:47;;;;;;;12.27;3.03;;;;;;;-145.71;100.00;60690.53;4926360;24;20444;31
2021/11/25 19:13:51;;;;;;;24.90;4.78;;;;;;;-145.71;100.00;60690.53;3258383;24;20229;-89
2021/11/25 19:17:15;;;;;;;20.73;3.88;;;;;;;-145.71;100.00;60690.53;4769254;30;20068;-92
2021/11/25 19:20:39;;;;;;;26.08;5.82;;;;;;;-145.71;100.00;60690.53;4772156;30;20814;-92
2021/11/25 19:24:03;;;;;;;25.83;4.85;;;;;;;-145.71;100.00;60690.53;4769711;30;20034;-91
2021/11/25 19:27:27;;;;;;;25.05;4.63;;;;;;;-145.71;100.00;60690.53;4770484;30;20405;-91
2021/11/25 19:30:51;;;;;;;23.58;5.60;;;;;;;-145.71;100.00;60690.53;4754251;30;20124;-91
2021/11/25 19:34:15;;;;;;;29.67;5.80;;;;;;;-145.71;100.00;60690.53;4769606;30;20040;-91
2021/11/25 19:37:40;;;;;;;27.73;3.97;;;;;;;-145.71;100.00;60690.53;4769999;30;20062;-91
2021/11/25 19:41:05;;;;;;;17.05;3.88;;;;;;;-145.71;100.00;60690.53;4770679;30;20032;-90
2021/11/25 19:44:31;;;;;;;21.08;4.53;;;;;;;-145.71;100.00;60690.53;4769399;30;20046;-91
2021/11/25 19:47:56;;;;;;;29.58;4.72;;;;;;;-145.71;100.00;60690.53;4769848;30;20038;-92
2021/11/25 19:51:21;;;;;;;25.02;4.38;;;;;;;-145.71;100.00;60690.53;4753993;30;20131;-92
2021/11/25 19:54:45;;;;;;;29.38;4.78;;;;;;;-145.71;100.00;60690.53;4769336;30;20122;-91
2021/11/25 19:58:09;;;;;;;21.13;3.97;;;;;;;-145.71;100.00;60690.53;4753768;30;20131;-91
2021/11/25 20:01:34;;;;;;;30.23;6.15;;;;;;;-145.71;100.00;60690.53;4753524;30;20335;-90
2021/11/25 20:04:58;;;;;;;23.42;4.07;;;;;;;-145.71;100.00;60690.53;4769578;30;20408;-91
2021/11/25 20:08:22;;;;;;;23.52;3.92;;;;;;;-145.71;100.00;60690.53;4753254;30;20035;-91
2021/11/25 20:11:49;;;;;;;25.05;4.28;;;;;;;-145.71;100.00;60690.53;4753272;30;20067;-90
2021/11/25 20:15:14;;;;;;;21.25;3.72;;;;;;;-145.71;100.00;60690.53;4752514;30;20055;-90
2021/11/25 20:18:38;;;;;;;16.98;3.75;;;;;;;-145.71;100.00;60690.53;4753243;30;20036;-91
2021/11/25 20:22:04;;;;;;;16.55;2.65;;;;;;;-145.71;100.00;60690.53;4752658;30;20409;-91
2021/11/25 20:25:28;;;;;;;20.70;2.97;;;;;;;-145.71;100.00;60690.53;4768982;30;20465;-91
2021/11/25 20:28:53;;;;;;;18.30;3.33;;;;;;;-145.71;100.00;60690.53;4768484;30;20115;-91
2021/11/25 20:32:17;;;;;;;30.65;4.28;;;;;;;-145.71;100.00;60690.53;4767458;30;20126;-91
2021/11/25 20:35:41;;;;;;;17.90;3.03;;;;;;;-145.71;100.00;60690.53;4770323;30;20078;-91
2021/11/25 20:39:05;;;;;;;17.85;4.05;;;;;;;-145.71;100.00;60690.53;4754213;30;20057;-91
2021/11/25 20:42:29;;;;;;;16.33;3.17;;;;;;;-145.71;100.00;60690.53;4768656;30;20036;-91
2021/11/25 20:45:53;;;;;;;17.13;3.63;;;;;;;-145.71;100.00;60690.53;4752569;30;20501;-91
2021/11/25 20:49:18;;;;;;;21.30;4.32;;;;;;;-145.71;100.00;60690.53;4768613;30;20059;-91
2021/11/25 20:52:42;;;;;;;13.00;3.00;;;;;;;-145.71;100.00;60690.53;4752788;30;20035;-91
2021/11/25 20:56:07;;;;;;;14.70;3.00;;;;;;;-145.71;100.00;60690.53;4769215;30;20050;-91
2021/11/25 20:59:31;;;;;;;15.32;3.55;;;;;;;-145.71;100.00;60690.53;4755503;30;20424;-90
2021/11/25 21:02:55;;;;;;;18.40;3.70;;;;;;;-145.71;100.00;60690.53;4768629;30;20047;-91
2021/11/25 21:06:20;;;;;;;15.98;2.92;;;;;;;-145.71;100.00;60690.53;4752234;30;20067;-91
2021/11/25 21:09:44;;;;;;;14.32;3.10;;;;;;;-145.71;100.00;60690.53;4757497;30;20070;-91
2021/11/25 21:13:08;;;;;;;20.33;3.78;;;;;;;-145.71;100.00;60690.53;4754679;30;20036;-91
2021/11/25 21:16:33;;;;;;;13.07;3.25;;;;;;;-145.71;100.00;60690.53;4751999;30;20143;-91
2021/11/25 21:19:57;;;;;;;26.63;3.55;;;;;;;-145.71;100.00;60690.53;4767845;30;20031;-91
2021/11/25 21:23:24;;;;;;;19.23;3.25;;;;;;;-145.71;100.00;60690.53;4752127;30;20096;-90
2021/11/25 21:26:49;;;;;;;24.33;3.28;;;;;;;-145.71;100.00;60690.53;4751077;30;20497;-91
2021/11/25 21:30:15;;;;;;;20.13;4.15;;;;;;;-145.71;100.00;60690.53;4751881;30;20043;-91
2021/11/25 21:33:40;;;;;;;22.55;4.85;;;;;;;-145.71;100.00;60690.53;4752019;30;20063;-91
2021/11/25 21:37:06;;;;;;;17.20;2.92;;;;;;;-145.71;100.00;60690.53;4769254;30;20032;-91
2021/11/25 21:40:31;;;;;;;15.63;3.53;;;;;;;-145.71;100.00;60690.53;4768399;30;20028;-91
2021/11/25 21:43:59;;;;;;;17.70;3.65;;;;;;;-145.71;100.00;60690.53;4768121;30;20035;-91
2021/11/25 21:47:23;;;;;;;22.77;3.20;;;;;;;-145.71;100.00;60690.53;4766916;30;20032;-91
2021/11/25 21:50:47;;;;;;;18.55;4.85;;;;;;;-145.71;100.00;60690.53;4752072;30;20485;-91
2021/11/25 21:54:11;;;;;;;13.00;3.00;;;;;;;-145.71;100.00;60690.53;4767853;30;20074;-91
2021/11/25 21:57:35;;;;;;;16.63;3.17;;;;;;;-145.71;100.00;60690.53;4768371;30;20036;-92
2021/11/25 22:00:59;;;;;;;22.02;3.72;;;;;;;-145.71;100.00;60690.53;4751594;30;20036;-91
2021/11/25 22:04:24;;;;;;;15.20;2.88;;;;;;;-145.71;100.00;60690.53;4766658;30;20035;-91
2021/11/25 22:07:47;;;;;;;11.52;2.88;;;;;;;-145.71;100.00;60690.53;4752755;30;20071;-91
2021/11/25 22:11:12;;;;;;;19.00;2.70;;;;;;;-145.71;100.00;60690.53;4768525;30;20409;-91
2021/11/25 22:14:36;;;;;;;16.02;3.30;;;;;;;-145.71;100.00;60690.53;4767542;30;20055;-91
2021/11/25 22:18:00;;;;;;;17.63;3.53;;;;;;;-145.71;100.00;60690.53;4767615;30;20232;-91
2021/11/25 22:21:31;;;;;;;16.70;2.45;;;;;;;-145.71;100.00;60690.53;4751734;30;20122;-91
2021/11/25 22:24:58;;;;;;;18.70;3.05;;;;;;;-145.71;100.00;60690.53;4767837;30;20118;-91
2021/11/25 22:28:25;;;;;;;19.10;3.13;;;;;;;-145.71;100.00;60690.53;4767420;30;20059;-91
2021/11/25 22:31:49;;;;;;;17.58;4.15;;;;;;;-145.71;100.00;60690.53;4751760;30;20147;-91
2021/11/25 22:35:14;;;;;;;25.15;3.78;;;;;;;-145.71;100.00;60690.53;4751714;30;20127;-91
2021/11/25 22:38:38;;;;;;;22.58;3.55;;;;;;;-145.71;100.00;60690.53;4758570;30;20040;-89
2021/11/25 22:42:02;;;;;;;27.02;5.15;;;;;;;-145.71;100.00;60690.53;4775522;30;20050;-90
2021/11/25 22:45:26;;;;;;;12.75;2.70;;;;;;;-145.71;100.00;60690.53;4770788;30;20058;-90
2021/11/25 22:48:52;;;;;;;18.45;2.35;;;;;;;-145.71;100.00;60690.53;4754028;30;20071;-90
2021/11/25 22:52:16;;;;;;;9.32;2.22;;;;;;;-145.71;100.00;60690.53;4754491;30;20036;-90
2021/11/25 22:55:40;;;;;;;16.83;2.22;;;;;;;-145.71;100.00;60690.53;4771488;30;20065;-91
2021/11/25 22:59:04;;;;;;;9.65;2.40;;;;;;;-145.71;100.00;60690.53;4754414;30;20035;-91
2021/11/25 23:02:28;;;;;;;11.68;2.38;;;;;;;-145.71;100.00;60690.53;4754450;30;20470;-91
2021/11/25 23:05:52;;;;;;;9.32;2.15;;;;;;;-145.71;100.00;60690.53;4772237;30;20073;-91
2021/11/25 23:09:16;;;;;;;11.02;2.30;;;;;;;-145.71;100.00;60690.53;4770090;30;20031;-91
2021/11/25 23:12:40;;;;;;;14.43;2.15;;;;;;;-145.71;100.00;60690.53;4753971;30;20401;-90
2021/11/25 23:16:05;;;;;;;10.48;2.95;;;;;;;-145.71;100.00;60690.53;4770076;30;20064;-90
2021/11/25 23:19:29;;;;;;;14.27;2.55;;;;;;;-145.71;100.00;60690.53;4753544;30;20042;-90
2021/11/25 23:22:53;;;;;;;10.50;2.08;;;;;;;-145.71;100.00;60690.53;4753650;30;20040;-91
2021/11/25 23:26:17;;;;;;;10.82;2.72;;;;;;;-145.71;100.00;60690.53;4753764;30;20130;-90
2021/11/25 23:29:41;;;;;;;16.88;3.30;;;;;;;-145.71;100.00;60690.53;4769963;30;20408;-91
2021/11/25 23:33:07;;;;;;;14.75;2.72;;;;;;;-145.71;100.00;60690.53;4775537;30;20088;-91
2021/11/25 23:36:31;;;;;;;17.40;2.40;;;;;;;-145.71;100.00;60690.53;4753669;30;20048;-91
2021/11/25 23:39:55;;;;;;;16.10;3.42;;;;;;;-145.71;100.00;60690.53;4753356;30;20063;-91
2021/11/25 23:43:21;;;;;;;17.65;3.35;;;;;;;-145.71;100.00;60690.53;4753523;30;20446;-92
2021/11/25 23:46:45;;;;;;;18.60;2.67;;;;;;;-145.71;100.00;60690.53;4753579;30;20448;-91
2021/11/25 23:50:14;;;;;;;16.08;3.13;;;;;;;-145.71;100.00;60690.53;4753045;30;20039;-91
2021/11/25 23:53:39;;;;;;;20.83;3.45;;;;;;;-145.71;100.00;60690.53;4752959;30;20047;-91
2021/11/25 23:57:04;;;;;;;13.85;2.53;;;;;;;-145.71;100.00;60690.53;4771131;30;20035;-90
